Latest Coastal Weather Observations for Darwin Harbour

IDD60701

Issued at 11:11 pm CST Thursday 17 August 2017 (issued every 10 minutes, with the page automatically refreshed every 10 minutes)

About coastal observations | Map of coastal stations | Coastal observations for NT | Marine services | Other Formats
Station Details ID: 014072 Name: DARWIN NTC AWS Lat: -12.47 Lon: 130.85 Height: 0.0 m
Data from the previous 72 hours. | See also: Recent months for locations in Northern Territory
Date/Time
CST
Temp
°C
Wind Pressure Rain since
9am
mm
Weather Cloud Vis
km
Sea
Height
m
Swell
Dir  Spd
kts
Gust
kts
hPa Trend Height
m
Period
s
Dir
17/11:00pm - W 2 4 1011.2 - - - - - - - - -
17/10:30pm - NW 2 3 1011.2 - - - - - - - - -
17/10:00pm - WSW 2 3 1011.1 - - - - - - - - -
17/09:30pm - WSW 2 3 1010.8 - - - - - - - - -
17/09:00pm - WSW 3 4 1010.4 - - - - - - - - -
17/08:30pm - W 3 4 1010.0 - - - - - - - - -
17/08:00pm - W 3 4 1009.5 - - - - - - - - -
17/07:30pm - NNW 3 7 1009.1 - - - - - - - - -
17/07:00pm - NNW 4 7 1008.9 - - - - - - - - -
17/06:30pm - N 2 5 1008.6 - - - - - - - - -
17/06:00pm - NNW 4 9 1008.5 - - - - - - - - -
17/05:30pm - NNE 4 9 1008.4 - - - - - - - - -
17/05:00pm - N 5 9 1008.1 - - - - - - - - -
17/04:30pm - NNE 6 12 1008.1 - - - - - - - - -
17/04:00pm - NNW 7 12 1008.1 - - - - - - - - -
17/03:30pm - NW 7 11 1008.3 - - - - - - - - -
17/03:00pm - NW 6 11 1008.5 - - - - - - - - -
17/02:30pm - W 6 8 1008.9 - - - - - - - - -
17/02:00pm - WNW 7 9 1009.3 - - - - - - - - -
17/01:30pm - W 4 8 1009.8 - - - - - - - - -
17/01:00pm - WSW 4 6 1010.4 - - - - - - - - -
17/12:30pm - WSW 4 5 1010.9 - - - - - - - - -
17/12:00pm - WSW 3 4 1011.5 - - - - - - - - -
17/11:30am - WSW 3 4 1012.1 - - - - - - - - -
17/11:00am - SW 1 2 1012.5 - - - - - - - - -
17/10:30am - SE 2 3 1012.8 - - - - - - - - -
17/10:00am - ESE 4 5 1012.7 - - - - - - - - -
17/09:30am - ESE 4 5 1012.5 - - - - - - - - -
17/09:00am - ESE 2 4 1012.2 - - - - - - - - -
17/08:30am - SE 2 3 1011.9 - - - - - - - - -
17/08:00am - SE 2 3 1011.7 - - - - - - - - -
17/07:30am - SSE 2 4 1011.3 - - - - - - - - -
17/07:00am - E 2 4 1011.0 - - - - - - - - -
17/06:30am - ENE 3 5 1010.6 - - - - - - - - -
17/06:00am - ENE 2 5 1010.3 - - - - - - - - -
17/05:30am - SE 4 6 1009.8 - - - - - - - - -
17/05:00am - SE 3 5 1009.6 - - - - - - - - -
17/04:30am - SSE 1 2 1009.6 - - - - - - - - -
17/04:00am - SW 3 5 1009.4 - - - - - - - - -
17/03:30am - SW 5 6 1009.4 - - - - - - - - -
17/03:00am - SW 3 4 1009.5 - - - - - - - - -
17/02:30am - SW 3 4 1009.7 - - - - - - - - -
17/02:00am - SW 3 6 1009.8 - - - - - - - - -
17/01:30am - SW 5 7 1010.0 - - - - - - - - -
17/01:00am - WSW 4 7 1010.3 - - - - - - - - -
17/12:30am - WSW 5 7 1010.4 - - - - - - - - -
17/12:00am - WSW 5 7 1010.6 - - - - - - - - -
 
Date/Time
CST
Temp
°C
Wind Pressure Rain since
9am
mm
Weather Cloud Vis
km
Sea
Height
m
Swell
Dir  Spd
kts
Gust
kts
hPa Trend Height
m
Period
s
Dir
16/11:30pm - WSW 5 7 1010.9 - - - - - - - - -
16/11:00pm - WSW 5 7 1011.0 - - - - - - - - -
16/10:30pm - WSW 7 9 1011.0 - - - - - - - - -
16/10:00pm - WSW 8 10 1010.8 - - - - - - - - -
16/09:30pm - WSW 8 11 1010.6 - - - - - - - - -
16/09:00pm - WSW 8 10 1010.4 - - - - - - - - -
16/08:30pm - WSW 6 8 1010.2 - - - - - - - - -
16/08:00pm - W 7 9 1009.8 - - - - - - - - -
16/07:30pm - W 7 10 1009.5 - - - - - - - - -
16/07:00pm - WNW 6 8 1009.2 - - - - - - - - -
16/06:30pm - WNW 6 8 1009.0 - - - - - - - - -
16/06:00pm - WNW 4 9 1008.7 - - - - - - - - -
16/05:30pm - WNW 5 9 1008.4 - - - - - - - - -
16/05:00pm - NW 6 12 1008.4 - - - - - - - - -
16/04:30pm - NW 7 11 1008.3 - - - - - - - - -
16/04:00pm - WNW 6 11 1008.2 - - - - - - - - -
16/03:30pm - WNW 8 14 1008.6 - - - - - - - - -
16/03:00pm - NNW 6 10 1008.7 - - - - - - - - -
16/02:30pm - NW 6 12 1009.3 - - - - - - - - -
16/02:00pm - WNW 5 9 1009.6 - - - - - - - - -
16/01:30pm - W 7 9 1010.1 - - - - - - - - -
16/01:00pm - W 7 9 1010.7 - - - - - - - - -
16/12:30pm - W 5 8 1011.1 - - - - - - - - -
16/12:00pm - W 4 5 1011.7 - - - - - - - - -
16/11:30am - WSW 4 5 1012.1 - - - - - - - - -
16/11:00am - SW 4 5 1012.4 - - - - - - - - -
16/10:30am - WSW 2 4 1012.7 - - - - - - - - -
16/10:00am - ESE 3 4 1012.9 - - - - - - - - -
16/09:30am - ESE 3 5 1012.8 - - - - - - - - -
16/09:00am - E 3 5 1012.7 - - - - - - - - -
16/08:30am - E 2 4 1012.2 - - - - - - - - -
16/08:00am - ENE 2 4 1011.9 - - - - - - - - -
16/07:30am - ENE 3 5 1011.6 - - - - - - - - -
16/07:00am - NE 3 3 1011.3 - - - - - - - - -
16/06:30am - ENE 3 6 1010.8 - - - - - - - - -
16/06:00am - ENE 3 6 1010.5 - - - - - - - - -
16/05:30am - ENE 3 6 1010.2 - - - - - - - - -
16/05:00am - ENE 3 6 1010.0 - - - - - - - - -
16/04:30am - SE 2 4 1009.9 - - - - - - - - -
16/04:00am - CALM 0 3 1009.9 - - - - - - - - -
16/03:30am - SW 4 6 1010.0 - - - - - - - - -
16/03:00am - SW 5 6 1010.1 - - - - - - - - -
16/02:30am - SW 5 7 1010.3 - - - - - - - - -
16/02:00am - SW 5 6 1010.5 - - - - - - - - -
16/01:30am - SW 6 7 1010.6 - - - - - - - - -
16/01:00am - SW 6 9 1010.8 - - - - - - - - -
16/12:30am - SW 6 8 1011.0 - - - - - - - - -
16/12:00am - WSW 6 8 1011.2 - - - - - - - - -
 
Date/Time
CST
Temp
°C
Wind Pressure Rain since
9am
mm
Weather Cloud Vis
km
Sea
Height
m
Swell
Dir  Spd
kts
Gust
kts
hPa Trend Height
m
Period
s
Dir
15/11:30pm - SW 8 11 1011.2 - - - - - - - - -
15/11:00pm - SW 9 12 1011.3 - - - - - - - - -
15/10:30pm - WSW 7 11 1011.3 - - - - - - - - -
15/10:00pm - WSW 8 10 1011.2 - - - - - - - - -
15/09:30pm - WSW 7 9 1011.3 - - - - - - - - -
15/09:00pm - WSW 7 9 1011.2 - - - - - - - - -
15/08:30pm - WSW 6 9 1010.9 - - - - - - - - -
15/08:00pm - WSW 8 9 1010.6 - - - - - - - - -
15/07:30pm - W 5 8 1010.4 - - - - - - - - -
15/07:00pm - W 5 7 1010.3 - - - - - - - - -
15/06:30pm - NW 4 8 1010.0 - - - - - - - - -
15/06:00pm - NNW 4 9 1009.8 - - - - - - - - -
15/05:30pm - NW 5 11 1009.6 - - - - - - - - -
15/05:00pm - WNW 5 11 1009.5 - - - - - - - - -
15/04:30pm - WNW 6 12 1009.3 - - - - - - - - -
15/04:00pm - NNW 5 11 1009.3 - - - - - - - - -
15/03:30pm - NNW 8 15 1009.6 - - - - - - - - -
15/03:00pm - NNW 7 15 1009.8 - - - - - - - - -
15/02:30pm - NW 5 11 1010.2 - - - - - - - - -
15/02:00pm - NW 6 12 1010.6 - - - - - - - - -
15/01:30pm - WNW 9 12 1011.2 - - - - - - - - -
15/01:00pm - W 6 8 1011.6 - - - - - - - - -
15/12:30pm - SSE 2 6 1012.0 - - - - - - - - -
15/12:00pm - SE 4 6 1012.4 - - - - - - - - -
15/11:30am - SE 5 7 1012.9 - - - - - - - - -
15/11:00am - SE 5 7 1013.4 - - - - - - - - -
15/10:30am - NNW 1 3 1013.8 - - - - - - - - -
15/10:00am - E 1 3 1014.1 - - - - - - - - -
15/09:30am - ESE 3 4 1014.2 - - - - - - - - -
15/09:00am - ESE 4 5 1014.2 - - - - - - - - -
15/08:30am - ESE 4 5 1014.0 - - - - - - - - -
15/08:00am - ESE 4 5 1013.6 - - - - - - - - -
15/07:30am - ESE 2 3 1013.2 - - - - - - - - -
15/07:00am - ESE 3 4 1013.1 - - - - - - - - -
15/06:30am - SE 3 4 1012.9 - - - - - - - - -
15/06:00am - ESE 5 6 1012.7 - - - - - - - - -
15/05:30am - SE 4 6 1012.4 - - - - - - - - -
15/05:00am - SE 4 6 1012.1 - - - - - - - - -
15/04:30am - ESE 3 5 1012.1 - - - - - - - - -
15/04:00am - SE 2 5 1012.0 - - - - - - - - -
15/03:30am - ESE 2 3 1012.2 - - - - - - - - -
15/03:00am - E 3 5 1012.3 - - - - - - - - -
15/02:30am - SE 4 5 1012.5 - - - - - - - - -
15/02:00am - E 3 5 1012.7 - - - - - - - - -
15/01:30am - NE 2 4 1012.9 - - - - - - - - -
15/01:00am - ENE 2 4 1013.0 - - - - - - - - -
15/12:30am - ESE 1 3 1013.2 - - - - - - - - -
15/12:00am - W 1 3 1013.2 - - - - - - - - -
 
Date/Time
CST
Temp
°C
Wind Pressure Rain since
9am
mm
Weather Cloud Vis
km
Sea
Height
m
Swell
Dir  Spd
kts
Gust
kts
hPa Trend Height
m
Period
s
Dir
14/11:30pm - W 1 4 1013.4 - - - - - - - - -

Other Formats:

Comma delimited format used in spreadsheet applications
http://www.bom.gov.au/fwo/IDD60701/IDD60701.95122.axf

JavaScript Object Notation format (JSON) in row-major order
http://www.bom.gov.au/fwo/IDD60701/IDD60701.95122.json